This is the latest recevied weather packets stored in our database for station/object LU5HOA-13. If no packets are shown the sender has not sent any weather packets the latest 10 day(s).
| Time | Temp. | Humidity | Pressure | Rain* | Wind** | Luminosity | Snow |
|---|---|---|---|---|---|---|---|
| 1787786371 | 17.22° C | 80% | - | 0 mm | - | - | - |
| 1787785767 | 17.78° C | 77% | - | 0 mm | - | - | - |
| 1787784612 | 18.33° C | 74% | - | 0 mm | - | - | - |
| 1787783820 | 18.89° C | 70% | - | 0 mm | - | - | - |
| 1787781974 | 19.44° C | 67% | - | 0 mm | - | - | - |
| 1787781372 | 20° C | 64% | - | 0 mm | - | - | - |
| 1787780769 | 20.56° C | 61% | - | 0 mm | - | - | - |
| 1787780167 | 20.56° C | 61% | - | 0 mm | - | - | - |
| 1787779566 | 21.11° C | 58% | - | 0 mm | - | - | - |
| 1787778966 | 21.67° C | 55% | - | 0 mm | - | - | - |
| 1787778364 | 21.67° C | 55% | - | 0 mm | - | - | - |
| 1787777764 | 22.78° C | 53% | - | 0 mm | - | - | - |
| 1787777163 | 23.33° C | 51% | - | 0 mm | - | - | - |
| 1787776560 | 23.33° C | 51% | - | 0 mm | - | - | - |
| 1787775960 | 23.33° C | 48% | - | 0 mm | - | - | - |
| 1787775355 | 23.89° C | 47% | - | 0 mm | - | - | - |
| 1787774755 | 23.89° C | 47% | - | 0 mm | - | - | - |
| 1787774153 | 24.44° C | 45% | - | 0 mm | - | - | - |
| 1787773551 | 24.44° C | 44% | - | 0 mm | - | - | - |
| 1787772946 | 24.44° C | 44% | - | 0 mm | - | - | - |
| 1787772344 | 25° C | 43% | - | 0 mm | - | - | - |
| 1787771742 | 25° C | 42% | - | 0 mm | - | - | - |
| 1787771140 | 25° C | 42% | - | 0 mm | - | - | - |
| 1787770540 | 25° C | 41% | - | 0 mm | - | - | - |
| 1787769939 | 23.33° C | 46% | - | 0 mm | - | - | - |
* Rain latest hour (hover to see other rain measurements)
** Current wind speed in m/s (hover to see current wind gust speed)